Time;durP1;ratioP1;P1;durP2;ratioP2;P2;SDS_P1;SDS_P2;PMS_P1;PMS_P2;Temp;Humidity;BMP_temperature;BMP_pressure;BME280_temperature;BME280_humidity;BME280_pressure;Samples;Min_cycle;Max_cycle;Signal;HPM_P1;HPM_P2
2022/06/16 00:00:29;;;;;;;18.15;7.00;;;13.50;99.90;;;;;;5059236;28;20048;-80
2022/06/16 00:02:54;;;;;;;16.20;6.80;;;13.40;99.90;;;;;;5056537;28;20111;-80
2022/06/16 00:05:23;;;;;;;16.77;6.65;;;13.40;99.90;;;;;;5053993;28;20053;-79
2022/06/16 00:07:49;;;;;;;23.98;8.55;;;13.30;99.90;;;;;;5055700;28;20067;-80
2022/06/16 00:10:16;;;;;;;13.43;6.37;;;13.30;99.90;;;;;;5055839;28;20102;-79
2022/06/16 00:12:42;;;;;;;15.55;6.32;;;13.30;99.90;;;;;;5072085;28;20078;-79
2022/06/16 00:15:13;;;;;;;15.77;6.60;;;13.30;99.90;;;;;;5073041;28;20052;-80
2022/06/16 00:17:38;;;;;;;17.63;6.10;;;13.40;99.90;;;;;;5073487;28;20090;-79
2022/06/16 00:20:07;;;;;;;17.27;6.40;;;13.40;99.90;;;;;;5077158;28;20044;-79
2022/06/16 00:22:34;;;;;;;15.38;6.28;;;13.40;99.90;;;;;;5077649;28;20123;-79
2022/06/16 00:25:00;;;;;;;18.20;6.10;;;13.30;99.90;;;;;;5057781;28;20064;-79
2022/06/16 00:27:26;;;;;;;15.98;6.30;;;13.30;99.90;;;;;;5065014;28;20048;-79
2022/06/16 00:29:51;;;;;;;19.38;6.30;;;13.20;99.90;;;;;;5053500;28;20048;-77
2022/06/16 00:32:17;;;;;;;13.23;5.05;;;13.20;99.90;;;;;;5055061;28;20052;-81
2022/06/16 00:34:43;;;;;;;18.85;5.82;;;13.20;99.90;;;;;;5053800;28;20128;-79
2022/06/16 00:37:09;;;;;;;17.27;6.13;;;13.20;99.90;;;;;;5055315;28;20049;-80
2022/06/16 00:39:34;;;;;;;14.93;5.97;;;13.20;99.90;;;;;;5055635;28;20053;-79
2022/06/16 00:42:15;;;;;;;22.20;5.60;;;13.20;99.90;;;;;;5064249;28;20067;-79
2022/06/16 00:44:44;;;;;;;17.48;5.90;;;13.30;99.90;;;;;;5081219;28;20124;-80
2022/06/16 00:47:11;;;;;;;17.17;5.43;;;13.30;99.90;;;;;;5078560;28;20063;-78
2022/06/16 00:49:41;;;;;;;15.43;5.82;;;13.30;99.90;;;;;;5079900;28;20048;-79
2022/06/16 00:52:16;;;;;;;21.83;5.90;;;13.30;99.90;;;;;;5075965;28;20083;-78
2022/06/16 00:54:51;;;;;;;10.98;4.90;;;13.20;99.90;;;;;;5078896;28;20055;-79
2022/06/16 00:57:21;;;;;;;14.52;5.57;;;13.20;99.90;;;;;;5067269;28;20064;-79
2022/06/16 00:59:48;;;;;;;12.07;5.72;;;13.10;99.90;;;;;;5059471;28;20048;-81
2022/06/16 01:02:15;;;;;;;18.77;6.20;;;13.10;99.90;;;;;;5061624;28;20041;-79
2022/06/16 01:04:52;;;;;;;15.77;6.13;;;13.10;99.90;;;;;;5073421;28;20052;-78
2022/06/16 01:07:23;;;;;;;16.40;5.88;;;13.10;99.90;;;;;;5077022;28;20047;-77
2022/06/16 01:09:51;;;;;;;16.08;5.63;;;13.00;99.90;;;;;;5079017;28;20066;-78
2022/06/16 01:15:52;;;;;;;16.05;4.97;;;13.00;99.90;;;;;;5072347;28;20122;-76
2022/06/16 01:18:17;;;;;;;14.02;5.05;;;13.00;99.90;;;;;;5073811;28;20052;-79
2022/06/16 01:21:09;;;;;;;15.18;5.30;;;13.00;99.90;;;;;;5077673;28;20086;-78
2022/06/16 01:23:57;;;;;;;14.25;5.28;;;13.00;99.90;;;;;;5058058;28;20095;-80
2022/06/16 01:27:00;;;;;;;14.60;6.70;;;12.90;99.90;;;;;;5053122;28;20059;-78
2022/06/16 01:29:56;;;;;;;15.45;5.88;;;12.80;99.90;;;;;;5052937;28;20110;-78
2022/06/16 01:32:45;;;;;;;16.75;5.45;;;12.70;99.90;;;;;;5053712;28;20599;-79
2022/06/16 01:35:26;;;;;;;24.15;7.18;;;12.70;99.90;;;;;;5055034;28;20053;-76
2022/06/16 01:38:16;;;;;;;16.95;6.18;;;12.60;99.90;;;;;;5053106;28;20053;-79
2022/06/16 01:41:17;;;;;;;20.20;6.88;;;12.60;99.90;;;;;;5051732;28;20056;-78
2022/06/16 01:43:59;;;;;;;19.60;7.35;;;12.60;99.90;;;;;;5040255;28;20083;-78
2022/06/16 01:46:31;;;;;;;13.55;5.50;;;12.60;99.90;;;;;;5054842;28;20064;-79
2022/06/16 01:49:12;;;;;;;19.08;6.78;;;12.60;99.90;;;;;;5072802;28;20045;-79
2022/06/16 01:51:58;;;;;;;26.58;10.25;;;12.60;99.90;;;;;;5072888;28;20045;-78
2022/06/16 01:54:39;;;;;;;14.65;5.97;;;12.60;99.90;;;;;;5057522;28;20049;-79
2022/06/16 01:57:17;;;;;;;15.30;5.97;;;12.60;99.90;;;;;;5055814;28;20037;-79
2022/06/16 02:00:16;;;;;;;16.77;6.28;;;12.60;99.90;;;;;;5054719;28;20353;-82
2022/06/16 02:02:43;;;;;;;21.70;7.18;;;12.60;99.90;;;;;;5053256;28;20037;-80
2022/06/16 02:05:22;;;;;;;19.42;6.35;;;12.60;99.90;;;;;;5057486;28;20040;-80
2022/06/16 02:08:18;;;;;;;14.95;5.68;;;12.50;99.90;;;;;;5055737;28;20217;-80
2022/06/16 02:10:55;;;;;;;16.65;6.82;;;12.50;99.90;;;;;;5069590;28;20055;-79
2022/06/16 02:13:26;;;;;;;16.40;5.72;;;12.40;99.90;;;;;;5072078;28;20070;-80
2022/06/16 02:15:55;;;;;;;15.27;6.20;;;12.40;99.90;;;;;;5075833;28;20052;-79
2022/06/16 02:18:24;;;;;;;23.45;6.05;;;12.40;99.90;;;;;;5074579;28;20083;-81
2022/06/16 02:21:16;;;;;;;17.02;5.80;;;12.40;99.90;;;;;;5073297;28;20123;-80
2022/06/16 02:23:42;;;;;;;18.75;5.60;;;12.40;99.90;;;;;;5075855;28;20114;-79
2022/06/16 02:26:12;;;;;;;17.13;5.82;;;12.40;99.90;;;;;;5078014;28;20126;-79
2022/06/16 02:28:59;;;;;;;18.90;7.10;;;12.40;99.90;;;;;;5078314;28;20052;-79
2022/06/16 02:32:21;;;;;;;15.32;6.53;;;12.30;99.90;;;;;;5054827;28;20056;-78
2022/06/16 02:35:13;;;;;;;15.68;6.15;;;12.30;99.90;;;;;;5031681;28;20049;-78
2022/06/16 02:38:04;;;;;;;15.25;6.20;;;12.30;99.90;;;;;;5032525;28;20093;-79
2022/06/16 02:40:49;;;;;;;17.73;6.53;;;12.20;99.90;;;;;;5054226;28;20513;-78
2022/06/16 02:43:19;;;;;;;15.02;6.32;;;12.10;99.90;;;;;;5051543;28;20048;-78
2022/06/16 02:45:48;;;;;;;23.50;8.02;;;12.00;99.90;;;;;;5058648;28;20112;-78
2022/06/16 02:48:35;;;;;;;16.13;6.38;;;12.00;99.90;;;;;;5042987;28;20087;-82
2022/06/16 02:51:13;;;;;;;18.17;6.60;;;12.00;99.90;;;;;;5057909;28;20048;-78
2022/06/16 02:54:10;;;;;;;17.52;6.97;;;11.90;99.90;;;;;;5062289;28;20049;-77
2022/06/16 02:56:48;;;;;;;19.48;6.97;;;11.90;99.90;;;;;;5063061;28;20059;-79
2022/06/16 02:59:20;;;;;;;20.23;7.10;;;11.90;99.90;;;;;;5058696;28;20106;-79
2022/06/16 03:01:47;;;;;;;24.38;7.82;;;11.90;99.90;;;;;;5057896;28;20125;-79
2022/06/16 03:04:16;;;;;;;18.27;8.55;;;11.90;99.90;;;;;;5062116;28;20079;-78
2022/06/16 03:06:42;;;;;;;22.90;8.52;;;12.00;99.90;;;;;;5076845;28;20048;-78
2022/06/16 03:09:09;;;;;;;22.08;7.38;;;12.00;99.90;;;;;;5072333;28;20528;-79
2022/06/16 03:11:36;;;;;;;26.67;8.35;;;11.90;99.90;;;;;;5070792;28;20045;-79
2022/06/16 03:14:03;;;;;;;19.10;7.60;;;11.90;99.90;;;;;;5070960;28;20044;-78
2022/06/16 03:16:28;;;;;;;20.17;7.80;;;11.90;99.90;;;;;;5071323;28;20060;-79
2022/06/16 03:18:54;;;;;;;21.58;7.78;;;11.80;99.90;;;;;;5069989;28;20049;-78
2022/06/16 03:21:20;;;;;;;23.60;7.88;;;11.80;99.90;;;;;;5069840;28;20048;-79
2022/06/16 03:23:46;;;;;;;19.80;7.90;;;11.70;99.90;;;;;;5071489;28;20101;-78
2022/06/16 03:26:12;;;;;;;21.20;8.23;;;11.70;99.90;;;;;;5054601;28;20041;-80
2022/06/16 03:28:38;;;;;;;19.83;8.80;;;11.70;99.90;;;;;;5049298;28;20052;-79
2022/06/16 03:31:03;;;;;;;20.35;8.43;;;11.60;99.90;;;;;;5053264;28;20176;-79
2022/06/16 03:33:29;;;;;;;26.77;8.45;;;11.50;99.90;;;;;;5064178;28;20044;-78
2022/06/16 03:35:56;;;;;;;25.38;7.85;;;11.50;99.90;;;;;;5061119;28;20048;-78
2022/06/16 03:39:04;;;;;;;21.58;7.80;;;11.60;99.90;;;;;;5063511;28;20066;-79
2022/06/16 03:41:11;;;;;;;20.95;7.90;;;11.40;99.90;;;;;;5078452;28;20051;-78
2022/06/16 03:43:38;;;;;;;23.00;9.15;;;11.50;99.90;;;;;;5083233;28;20064;-79
2022/06/16 03:46:04;;;;;;;20.98;8.23;;;11.50;99.90;;;;;;5083005;28;20099;-80
2022/06/16 03:48:31;;;;;;;20.98;7.97;;;11.50;99.90;;;;;;5079762;28;20052;-79
2022/06/16 03:50:57;;;;;;;23.10;8.88;;;11.50;99.90;;;;;;5063789;28;20128;-79
2022/06/16 03:53:23;;;;;;;21.58;8.27;;;11.50;99.90;;;;;;5059604;28;20053;-79
2022/06/16 03:55:49;;;;;;;22.90;7.95;;;11.60;99.90;;;;;;5044855;28;20375;-79
2022/06/16 03:58:16;;;;;;;22.60;9.18;;;11.60;99.90;;;;;;5061374;28;20099;-78
2022/06/16 04:00:42;;;;;;;24.58;8.07;;;11.60;99.90;;;;;;5078391;28;20049;-78
2022/06/16 04:05:53;;;;;;;20.77;8.15;;;11.70;99.90;;;;;;5085504;28;20045;-78
2022/06/16 04:08:22;;;;;;;19.00;7.80;;;11.80;99.90;;;;;;5084347;28;20044;-78
2022/06/16 04:10:48;;;;;;;19.83;7.85;;;12.00;99.90;;;;;;5063828;28;20040;-79
2022/06/16 04:13:15;;;;;;;19.90;7.05;;;12.00;99.90;;;;;;5085366;28;20079;-79
2022/06/16 04:15:41;;;;;;;;;;;12.10;99.90;;;;;;5065045;28;20053;-79
2022/06/16 04:18:07;;;;;;;17.87;7.30;;;12.20;99.90;;;;;;5086659;28;19982;-80
2022/06/16 04:20:33;;;;;;;18.38;6.47;;;12.30;99.90;;;;;;5080647;28;20064;-79
2022/06/16 04:23:00;;;;;;;22.27;8.02;;;12.50;99.90;;;;;;5079535;28;20048;-77
2022/06/16 04:25:30;;;;;;;22.05;7.55;;;12.60;99.90;;;;;;5081563;28;20051;-80
2022/06/16 04:28:01;;;;;;;19.63;7.47;;;12.80;99.90;;;;;;5081630;28;20043;-79
2022/06/16 04:30:28;;;;;;;20.80;7.97;;;12.80;99.90;;;;;;5077330;28;20055;-78
2022/06/16 04:32:54;;;;;;;23.73;7.55;;;12.80;99.90;;;;;;5054887;28;20171;-79
2022/06/16 04:35:20;;;;;;;21.58;7.28;;;12.90;99.90;;;;;;5046486;28;20507;-79
2022/06/16 04:37:46;;;;;;;19.55;7.78;;;13.00;99.90;;;;;;5072068;28;20401;-79
2022/06/16 04:40:12;;;;;;;22.83;6.88;;;13.00;99.90;;;;;;5038407;28;20144;-80
2022/06/16 04:42:38;;;;;;;18.20;7.50;;;13.00;99.90;;;;;;5052189;28;20095;-82
2022/06/16 04:45:04;;;;;;;17.98;7.35;;;13.10;99.90;;;;;;5052605;28;20048;-80
2022/06/16 04:47:30;;;;;;;20.05;7.55;;;13.00;99.90;;;;;;5055497;28;20417;-81
2022/06/16 04:49:56;;;;;;;17.38;7.82;;;13.00;99.90;;;;;;5020637;28;20053;-79
2022/06/16 04:52:22;;;;;;;18.42;7.05;;;13.10;99.90;;;;;;5056659;28;20531;-79
2022/06/16 04:54:48;;;;;;;18.85;6.80;;;13.20;99.90;;;;;;5054040;28;20114;-80
2022/06/16 04:57:15;;;;;;;16.90;6.93;;;13.30;99.90;;;;;;5051620;28;20504;-80
2022/06/16 04:59:42;;;;;;;16.42;6.22;;;13.20;99.90;;;;;;5052625;28;20080;-81
2022/06/16 05:02:08;;;;;;;19.58;7.05;;;13.20;99.90;;;;;;5055193;28;20569;-79
2022/06/16 05:04:35;;;;;;;18.65;7.50;;;13.20;99.90;;;;;;5072328;28;20204;-81
2022/06/16 05:07:01;;;;;;;17.48;6.82;;;13.20;99.90;;;;;;5070963;28;20060;-79
2022/06/16 05:09:28;;;;;;;17.30;7.13;;;13.20;99.90;;;;;;5075340;28;20049;-80
2022/06/16 05:11:54;;;;;;;17.70;7.20;;;13.30;99.90;;;;;;5072540;28;20115;-76
2022/06/16 05:14:20;;;;;;;21.90;8.03;;;13.30;99.90;;;;;;5073461;28;20040;-79
2022/06/16 05:16:48;;;;;;;21.40;7.15;;;13.40;99.90;;;;;;5056460;28;20080;-79
2022/06/16 05:19:14;;;;;;;22.75;7.72;;;13.40;99.90;;;;;;5073287;28;20055;-79
2022/06/16 05:21:40;;;;;;;17.88;7.13;;;13.50;99.90;;;;;;5071522;28;20112;-80
2022/06/16 05:24:06;;;;;;;19.40;7.85;;;13.60;99.90;;;;;;5063717;28;20080;-79
2022/06/16 05:26:32;;;;;;;17.73;7.38;;;13.50;99.90;;;;;;5051748;28;20051;-80
2022/06/16 05:28:57;;;;;;;15.68;6.40;;;13.70;99.90;;;;;;5058866;28;20450;-81
2022/06/16 05:31:23;;;;;;;20.40;6.63;;;13.70;99.90;;;;;;5053614;28;20099;-79
2022/06/16 05:33:52;;;;;;;18.50;7.35;;;13.80;99.90;;;;;;5040344;28;20032;-82
2022/06/16 05:36:18;;;;;;;16.13;6.13;;;13.80;99.90;;;;;;5055041;28;20056;-83
2022/06/16 05:38:45;;;;;;;17.40;6.32;;;13.80;99.90;;;;;;5036922;28;20061;-81
2022/06/16 05:41:17;;;;;;;17.90;6.10;;;13.90;99.90;;;;;;5053822;28;20080;-79
2022/06/16 05:43:44;;;;;;;16.38;5.80;;;13.90;99.90;;;;;;5055324;28;20041;-78
2022/06/16 05:46:21;;;;;;;13.75;5.35;;;13.90;99.90;;;;;;5074945;28;20113;-81
2022/06/16 05:48:47;;;;;;;16.63;5.50;;;14.00;99.90;;;;;;5070979;28;20109;-81
2022/06/16 05:51:15;;;;;;;13.30;5.60;;;14.00;99.90;;;;;;5064688;28;20081;-80
2022/06/16 05:53:41;;;;;;;19.58;6.43;;;13.90;99.90;;;;;;5062482;28;20052;-80
2022/06/16 05:56:07;;;;;;;14.03;5.27;;;13.90;99.90;;;;;;5054801;28;20052;-81
2022/06/16 05:58:34;;;;;;;14.00;5.43;;;14.00;99.90;;;;;;5052827;28;20383;-80
2022/06/16 06:01:00;;;;;;;15.27;5.78;;;14.10;99.90;;;;;;5060322;28;20052;-81
2022/06/16 06:03:29;;;;;;;12.88;5.00;;;14.30;99.90;;;;;;5067536;28;20071;-82
2022/06/16 06:05:54;;;;;;;13.40;4.88;;;14.30;99.90;;;;;;5063215;28;20044;-81
2022/06/16 06:16:49;;;;;;;8.85;3.72;;;14.60;99.90;;;;;;5046012;28;20107;-81
2022/06/16 06:19:25;;;;;;;11.60;3.92;;;14.60;99.90;;;;;;5062873;28;20057;-80
2022/06/16 06:21:58;;;;;;;10.88;3.70;;;14.60;99.90;;;;;;5058882;28;20041;-79
2022/06/16 06:24:24;;;;;;;16.08;4.15;;;14.70;99.90;;;;;;5061581;28;20051;-81
2022/06/16 06:26:51;;;;;;;11.93;3.85;;;14.80;99.90;;;;;;5059026;28;20079;-81
2022/06/16 06:29:16;;;;;;;12.50;4.03;;;14.80;99.90;;;;;;5056216;28;20057;-80
2022/06/16 06:31:42;;;;;;;14.18;3.97;;;14.90;99.90;;;;;;5056918;28;20079;-81
2022/06/16 06:34:08;;;;;;;14.70;3.65;;;14.90;99.90;;;;;;5037342;28;20110;-82
2022/06/16 06:36:33;;;;;;;13.65;2.50;;;15.00;99.90;;;;;;5039203;28;20059;-81
2022/06/16 06:38:59;;;;;;;8.25;2.92;;;15.10;99.90;;;;;;5068096;28;20151;-77
2022/06/16 06:41:25;;;;;;;10.02;2.58;;;15.10;99.90;;;;;;5071590;28;20063;-81
2022/06/16 06:43:59;;;;;;;13.30;2.50;;;15.30;99.90;;;;;;5074666;28;20040;-81
2022/06/16 06:46:25;;;;;;;6.97;2.53;;;15.40;99.90;;;;;;5074644;28;20049;-80
2022/06/16 06:48:51;;;;;;;7.37;1.80;;;15.40;99.90;;;;;;5072611;28;20047;-82
2022/06/16 06:51:16;;;;;;;7.67;1.80;;;15.50;99.90;;;;;;5072001;28;20063;-81
2022/06/16 06:53:42;;;;;;;4.03;1.40;;;15.50;99.90;;;;;;5071868;28;20086;-80
2022/06/16 06:56:09;;;;;;;5.20;1.73;;;15.60;99.90;;;;;;5056371;28;20048;-80
2022/06/16 06:58:35;;;;;;;5.65;2.03;;;15.60;99.90;;;;;;5071223;28;20105;-82
2022/06/16 07:01:01;;;;;;;7.33;2.20;;;15.60;99.90;;;;;;5071482;28;20056;-80
2022/06/16 07:03:29;;;;;;;10.67;2.27;;;15.70;99.90;;;;;;5070374;28;20055;-82
2022/06/16 07:05:55;;;;;;;5.63;2.00;;;15.70;99.90;;;;;;5086868;28;20133;-81
2022/06/16 07:08:21;;;;;;;7.97;1.60;;;15.90;99.90;;;;;;5072199;28;20040;-78
2022/06/16 07:10:47;;;;;;;4.20;1.30;;;15.90;99.90;;;;;;5070606;28;20056;-80
2022/06/16 07:13:14;;;;;;;5.97;1.42;;;15.80;99.90;;;;;;5070420;28;20131;-82
2022/06/16 07:15:40;;;;;;;5.45;2.00;;;16.00;99.90;;;;;;5055911;28;20103;-82
2022/06/16 07:18:06;;;;;;;8.27;1.50;;;16.20;99.90;;;;;;5075005;28;20441;-80
2022/06/16 07:20:33;;;;;;;4.93;1.48;;;16.20;99.90;;;;;;5075547;28;20480;-81
2022/06/16 07:22:59;;;;;;;5.07;1.52;;;16.40;99.90;;;;;;5076439;28;20041;-80
2022/06/16 07:25:25;;;;;;;6.30;1.77;;;;;;;;;;5073867;28;20060;-82
2022/06/16 07:27:53;;;;;;;6.03;2.30;;;16.70;99.90;;;;;;5059672;28;20088;-81
2022/06/16 07:30:21;;;;;;;6.80;1.55;;;16.70;99.90;;;;;;5075693;28;20279;-82
2022/06/16 07:32:47;;;;;;;7.25;2.08;;;;;;;;;;5058084;28;20044;-82
2022/06/16 07:35:15;;;;;;;9.52;1.88;;;;;;;;;;5078811;28;20074;-81
2022/06/16 07:37:43;;;;;;;7.18;1.98;;;16.80;99.90;;;;;;5078488;28;20047;-80
2022/06/16 07:40:10;;;;;;;6.18;1.63;;;;;;;;;;5078237;28;20052;-80
2022/06/16 07:42:36;;;;;;;7.28;1.40;;;16.90;99.90;;;;;;5072944;28;20090;-79
2022/06/16 07:45:06;;;;;;;5.35;1.10;;;16.80;99.60;;;;;;5074738;28;20044;-79
2022/06/16 07:47:32;;;;;;;8.13;1.40;;;16.80;99.90;;;;;;5077058;28;20051;-81
2022/06/16 07:49:59;;;;;;;9.07;1.58;;;17.00;99.30;;;;;;5074026;28;20052;-81
2022/06/16 07:52:25;;;;;;;5.95;1.30;;;17.00;99.90;;;;;;5074831;28;20143;-78
2022/06/16 07:54:50;;;;;;;9.82;1.50;;;17.20;99.90;;;;;;5073378;28;20136;-79
2022/06/16 07:57:18;;;;;;;6.93;1.10;;;17.40;99.90;;;;;;5074716;28;20620;-80
2022/06/16 07:59:48;;;;;;;10.38;1.60;;;17.50;99.90;;;;;;5076807;28;20045;-80
2022/06/16 08:02:14;;;;;;;8.98;1.40;;;17.60;99.90;;;;;;5075237;28;20218;-82
2022/06/16 08:04:39;;;;;;;9.87;1.87;;;17.70;99.90;;;;;;5076082;28;20736;-82
2022/06/16 08:07:05;;;;;;;11.85;1.55;;;17.80;99.50;;;;;;5059965;28;20400;-81
2022/06/16 08:09:33;;;;;;;5.97;1.55;;;17.60;96.50;;;;;;5111229;28;20053;-82
2022/06/16 08:12:09;;;;;;;6.70;2.00;;;17.70;97.40;;;;;;5091074;28;20442;-80
2022/06/16 08:14:38;;;;;;;6.30;1.95;;;17.70;97.00;;;;;;5056358;28;20127;-80
2022/06/16 08:17:12;;;;;;;7.63;1.85;;;17.80;97.70;;;;;;5076017;28;20425;-81
2022/06/16 08:19:37;;;;;;;9.13;2.00;;;18.00;97.20;;;;;;5073615;28;20459;-82
2022/06/16 08:22:04;;;;;;;7.13;2.13;;;17.70;96.30;;;;;;5072322;28;20076;-82
2022/06/16 08:24:30;;;;;;;9.32;2.13;;;17.90;97.30;;;;;;5073344;28;20076;-80
2022/06/16 08:26:57;;;;;;;8.33;2.67;;;18.00;97.60;;;;;;5071963;28;20079;-82
2022/06/16 08:29:22;;;;;;;;;;;18.20;97.10;;;;;;5073443;28;20242;-80
2022/06/16 08:31:48;;;;;;;10.33;2.70;;;18.20;96.40;;;;;;5075968;28;19982;-80
2022/06/16 08:34:14;;;;;;;7.13;2.20;;;18.20;97.00;;;;;;5055890;28;20052;-80
2022/06/16 08:36:40;;;;;;;7.63;2.17;;;18.30;96.00;;;;;;5073471;28;20045;-80
2022/06/16 08:39:07;;;;;;;8.43;2.75;;;18.30;96.40;;;;;;5041239;28;20416;-80
2022/06/16 08:42:11;;;;;;;;;;;18.50;96.90;;;;;;5052890;28;20465;-82
2022/06/16 08:44:41;;;;;;;7.68;2.65;;;18.60;95.50;;;;;;5032826;28;20016;-82
2022/06/16 08:47:32;;;;;;;8.55;2.75;;;18.70;96.00;;;;;;5031724;28;20045;-79
2022/06/16 08:50:22;;;;;;;10.38;3.13;;;18.70;94.80;;;;;;5046995;28;20045;-79
2022/06/16 08:53:09;;;;;;;15.48;3.20;;;18.70;94.80;;;;;;5054498;28;20049;-82
2022/06/16 08:55:54;;;;;;;10.27;3.10;;;18.70;95.00;;;;;;5053873;28;20045;-79
2022/06/16 08:58:44;;;;;;;9.90;3.33;;;18.70;93.50;;;;;;5052681;28;20049;-81
2022/06/16 09:01:21;;;;;;;9.48;3.22;;;18.80;93.50;;;;;;5052744;28;20056;-83
2022/06/16 09:04:10;;;;;;;9.50;3.40;;;19.10;94.70;;;;;;5053210;28;20354;-80
2022/06/16 09:07:05;;;;;;;7.90;3.28;;;19.10;94.50;;;;;;5066308;28;20057;-81
2022/06/16 09:12:45;;;;;;;10.07;3.33;;;19.00;93.40;;;;;;5049929;28;20140;-79
2022/06/16 09:15:48;;;;;;;12.90;3.65;;;19.20;93.80;;;;;;5053469;28;20060;-82
2022/06/16 09:18:51;;;;;;;12.02;2.97;;;19.30;93.70;;;;;;5052243;28;20394;-78
2022/06/16 09:21:19;;;;;;;10.23;3.28;;;19.50;93.00;;;;;;5054199;28;20061;-81
2022/06/16 09:23:58;;;;;;;11.27;3.50;;;19.60;92.50;;;;;;5053742;28;20132;-82
2022/06/16 09:26:31;;;;;;;10.50;3.03;;;19.80;92.70;;;;;;5052888;28;20489;-81
2022/06/16 09:29:23;;;;;;;8.40;3.08;;;19.80;92.30;;;;;;5071268;28;20538;-81
2022/06/16 09:32:08;;;;;;;14.73;3.90;;;20.00;92.30;;;;;;5042090;28;20063;-80
2022/06/16 09:34:38;;;;;;;11.98;3.72;;;19.80;89.70;;;;;;5040885;28;20106;-83
2022/06/16 09:37:11;;;;;;;10.05;3.53;;;19.60;90.00;;;;;;5054164;28;20085;-80
2022/06/16 09:39:45;;;;;;;8.00;3.53;;;19.70;90.70;;;;;;5051838;28;20056;-81
2022/06/16 09:42:37;;;;;;;9.27;3.53;;;19.80;90.00;;;;;;5052967;28;20060;-82
2022/06/16 09:45:13;;;;;;;12.40;3.78;;;19.90;90.90;;;;;;5059482;28;20056;-81
2022/06/16 09:47:58;;;;;;;10.18;3.28;;;20.00;90.70;;;;;;5056359;28;20122;-81
2022/06/16 09:50:36;;;;;;;8.00;3.90;;;20.10;90.60;;;;;;5061405;28;20036;-82
2022/06/16 09:53:13;;;;;;;11.85;4.15;;;20.20;90.30;;;;;;5057638;28;20102;-82
2022/06/16 09:55:50;;;;;;;9.52;3.65;;;20.30;90.40;;;;;;5057562;28;20060;-80
2022/06/16 09:58:27;;;;;;;6.88;3.33;;;20.50;90.40;;;;;;5054550;28;20035;-79
2022/06/16 10:00:54;;;;;;;11.48;3.92;;;20.60;89.50;;;;;;5056280;28;20065;-80
2022/06/16 10:03:51;;;;;;;15.20;4.10;;;20.40;86.40;;;;;;5063263;28;20080;-79
2022/06/16 10:07:00;;;;;;;8.93;3.70;;;20.70;88.90;;;;;;5073755;28;20080;-81
2022/06/16 10:09:47;;;;;;;13.00;3.97;;;20.90;88.70;;;;;;5063488;28;20080;-77
2022/06/16 10:12:37;;;;;;;8.27;4.18;;;20.70;84.50;;;;;;5074164;28;20062;-80
2022/06/16 10:15:22;;;;;;;14.23;4.55;;;20.80;85.30;;;;;;5077853;28;20049;-82
2022/06/16 10:17:51;;;;;;;13.05;5.10;;;20.90;84.00;;;;;;5077827;28;20373;-81
2022/06/16 10:20:18;;;;;;;12.25;4.40;;;20.90;84.70;;;;;;5077848;28;20143;-81
2022/06/16 10:22:53;;;;;;;9.93;4.55;;;21.00;86.30;;;;;;5077728;28;20044;-83
2022/06/16 10:25:59;;;;;;;14.25;4.05;;;21.00;83.50;;;;;;5074551;28;20233;-76
2022/06/16 10:28:42;;;;;;;;;;;21.20;86.40;;;;;;5062968;28;20088;-79
2022/06/16 10:31:09;;;;;;;11.65;4.10;;;20.80;82.50;;;;;;5073914;28;20007;-81
2022/06/16 10:33:56;;;;;;;8.38;4.15;;;20.80;81.90;;;;;;5074671;28;20067;-80
2022/06/16 10:36:24;;;;;;;16.17;5.32;;;21.00;81.30;;;;;;5079298;28;20053;-83
2022/06/16 10:39:16;;;;;;;11.85;4.80;;;21.10;79.70;;;;;;5071491;28;20060;-79
2022/06/16 10:42:00;;;;;;;13.55;5.22;;;21.20;81.60;;;;;;5062916;28;20086;-82
2022/06/16 10:44:28;;;;;;;11.60;5.53;;;21.40;82.00;;;;;;5059546;28;20049;-79
2022/06/16 10:46:58;;;;;;;13.90;5.22;;;21.30;78.70;;;;;;5058955;28;20064;-78
2022/06/16 10:49:34;;;;;;;13.98;5.60;;;21.50;79.70;;;;;;5058577;28;20081;-83
2022/06/16 10:52:02;;;;;;;;;;;21.50;78.30;;;;;;5062560;28;20045;-77
2022/06/16 10:54:34;;;;;;;16.33;5.57;;;21.50;79.50;;;;;;5063093;28;19947;-80
2022/06/16 10:57:23;;;;;;;16.52;6.00;;;21.60;78.80;;;;;;5063329;28;20045;-80
2022/06/16 10:59:55;;;;;;;13.55;5.57;;;21.60;78.90;;;;;;5065191;28;20044;-80
2022/06/16 11:02:25;;;;;;;18.17;6.38;;;21.90;79.40;;;;;;5062416;28;20053;-80
2022/06/16 11:05:10;;;;;;;14.20;5.93;;;21.70;77.10;;;;;;5063696;28;20077;-79
2022/06/16 11:07:43;;;;;;;17.65;6.35;;;21.90;80.90;;;;;;5059640;28;20151;-78
2022/06/16 11:10:16;;;;;;;13.68;6.30;;;21.80;78.70;;;;;;5059430;28;20099;-80
2022/06/16 11:12:47;;;;;;;15.55;6.70;;;22.00;78.70;;;;;;5075512;28;20641;-78
2022/06/16 11:15:25;;;;;;;17.88;5.50;;;21.70;76.60;;;;;;5062127;28;20063;-76
2022/06/16 11:17:56;;;;;;;13.35;5.78;;;21.80;78.50;;;;;;5058600;28;20044;-79
2022/06/16 11:20:38;;;;;;;17.92;6.50;;;22.10;77.60;;;;;;5058098;28;20131;-82
2022/06/16 11:23:21;;;;;;;18.58;6.55;;;21.70;76.20;;;;;;5061090;28;20045;-80
2022/06/16 11:25:54;;;;;;;19.05;6.43;;;21.90;75.10;;;;;;5057983;28;20049;-81
2022/06/16 11:28:22;;;;;;;16.02;5.85;;;21.50;76.30;;;;;;5057950;28;20146;-82
2022/06/16 11:30:48;;;;;;;20.13;5.95;;;21.80;76.60;;;;;;5057382;28;20045;-76
2022/06/16 11:36:23;;;;;;;15.07;6.70;;;22.40;77.30;;;;;;5057801;28;20049;-80
2022/06/16 11:38:57;;;;;;;14.18;6.45;;;22.60;74.70;;;;;;5057037;28;20158;-81
2022/06/16 11:41:25;;;;;;;15.00;6.15;;;22.60;75.70;;;;;;5053046;28;20049;-81
2022/06/16 11:44:40;;;;;;;13.10;5.68;;;22.70;74.50;;;;;;5056504;28;20072;-82
2022/06/16 11:47:33;;;;;;;12.30;5.28;;;22.90;74.00;;;;;;5038461;28;20485;-81
2022/06/16 11:50:27;;;;;;;14.98;5.68;;;22.70;73.60;;;;;;5055926;28;20087;-81
2022/06/16 11:52:59;;;;;;;13.73;5.90;;;22.50;72.10;;;;;;5054567;28;20041;-82
2022/06/16 11:55:33;;;;;;;15.32;5.60;;;22.40;70.90;;;;;;5035986;28;20053;-86
2022/06/16 11:58:20;;;;;;;13.35;5.55;;;22.50;71.90;;;;;;5052960;28;20045;-85
2022/06/16 12:01:01;;;;;;;12.00;5.25;;;22.80;72.50;;;;;;5051848;28;20049;-80
2022/06/16 12:03:35;;;;;;;14.48;5.57;;;23.20;72.50;;;;;;5056475;28;20056;-80
2022/06/16 12:06:13;;;;;;;12.98;5.57;;;23.20;69.60;;;;;;5055315;28;20045;-80
2022/06/16 12:09:01;;;;;;;13.35;5.88;;;23.00;69.80;;;;;;5054695;28;20041;-81
2022/06/16 12:12:01;;;;;;;15.75;6.10;;;23.20;70.80;;;;;;5052504;28;20045;-79
2022/06/16 12:14:50;;;;;;;12.57;5.97;;;23.00;71.70;;;;;;5052118;28;20076;-81
2022/06/16 12:17:43;;;;;;;13.10;5.75;;;22.90;70.70;;;;;;5054738;28;20511;-81
2022/06/16 12:20:17;;;;;;;15.30;6.57;;;23.00;71.90;;;;;;5053746;28;20081;-83
2022/06/16 12:22:53;;;;;;;15.73;6.03;;;22.90;69.00;;;;;;5052709;28;20080;-79
2022/06/16 12:25:25;;;;;;;;;;;22.60;71.10;;;;;;5037796;28;20064;-79
2022/06/16 12:28:00;;;;;;;14.55;5.80;;;22.40;71.20;;;;;;5086826;28;19920;-80
2022/06/16 12:30:38;;;;;;;14.02;6.32;;;22.90;71.20;;;;;;5056974;28;20128;-81
2022/06/16 12:33:18;;;;;;;12.50;5.50;;;23.10;69.80;;;;;;5055920;28;20104;-83
2022/06/16 12:35:52;;;;;;;13.00;5.00;;;23.30;70.10;;;;;;5053162;28;20056;-79
2022/06/16 12:38:34;;;;;;;12.88;5.18;;;23.40;69.70;;;;;;5058417;28;20049;-81
2022/06/16 12:41:17;;;;;;;16.33;5.85;;;23.60;68.90;;;;;;5043865;28;20057;-81
2022/06/16 12:43:56;;;;;;;11.50;5.00;;;23.50;68.30;;;;;;5060959;28;20093;-79
2022/06/16 12:46:50;;;;;;;12.13;5.22;;;23.50;68.10;;;;;;5059540;28;20040;-82
2022/06/16 12:49:24;;;;;;;11.98;5.45;;;23.50;67.90;;;;;;5059668;28;20132;-80
2022/06/16 12:51:55;;;;;;;9.80;5.45;;;23.60;67.40;;;;;;5057886;28;20053;-80
2022/06/16 12:54:51;;;;;;;9.82;4.88;;;23.70;67.80;;;;;;5053350;28;20052;-84
2022/06/16 12:57:22;;;;;;;13.98;5.45;;;23.40;68.10;;;;;;5072733;28;20064;-78
2022/06/16 12:59:55;;;;;;;13.75;5.70;;;23.50;67.60;;;;;;5077519;28;20045;-81
2022/06/16 13:02:26;;;;;;;12.40;5.82;;;23.20;67.00;;;;;;5059450;28;20050;-83
2022/06/16 13:04:55;;;;;;;13.68;6.03;;;23.00;67.50;;;;;;5074173;28;20139;-81
2022/06/16 13:07:25;;;;;;;14.07;6.43;;;23.20;65.90;;;;;;5075380;28;20048;-81
2022/06/16 13:09:51;;;;;;;16.75;6.63;;;23.00;67.00;;;;;;5058447;28;20040;-78
2022/06/16 13:12:25;;;;;;;15.53;5.83;;;23.00;66.60;;;;;;5076140;28;20474;-82
2022/06/16 13:15:06;;;;;;;10.63;5.40;;;23.10;67.90;;;;;;5075638;28;20049;-79
2022/06/16 13:17:37;;;;;;;12.70;5.70;;;23.10;67.90;;;;;;5072674;28;20053;-82
2022/06/16 13:20:12;;;;;;;19.52;5.55;;;23.20;68.40;;;;;;5077949;28;20068;-83
2022/06/16 13:22:56;;;;;;;18.17;6.10;;;23.10;68.50;;;;;;5077088;28;20040;-80
2022/06/16 13:25:53;;;;;;;11.27;5.63;;;23.30;67.70;;;;;;5091377;28;20159;-81
2022/06/16 13:28:37;;;;;;;12.63;5.38;;;23.30;65.60;;;;;;5054413;28;20069;-79
2022/06/16 13:31:09;;;;;;;12.23;5.43;;;23.30;67.30;;;;;;5056018;28;20070;-82
2022/06/16 13:33:50;;;;;;;15.05;5.45;;;23.30;65.30;;;;;;5055393;28;20085;-80